Time;durP1;ratioP1;P1;durP2;ratioP2;P2;SDS_P1;SDS_P2;PMS_P1;PMS_P2;Temp;Humidity;BMP_temperature;BMP_pressure;BME280_temperature;BME280_humidity;BME280_pressure;Samples;Min_cycle;Max_cycle;Signal;HPM_P1;HPM_P2
2022/04/10 00:01:29;;;;;;;1.10;0.80;;;;;;;21.07;33.62;99537.63;5131701;28;20047;-66
2022/04/10 00:03:56;;;;;;;1.40;0.90;;;;;;;21.07;33.41;99537.63;5131626;28;20035;-66
2022/04/10 00:06:22;;;;;;;1.58;0.80;;;;;;;21.07;33.43;99529.28;5131634;28;20380;-66
2022/04/10 00:08:48;;;;;;;1.42;0.95;;;;;;;21.07;33.25;99524.53;5131427;28;20567;-66
2022/04/10 00:11:13;;;;;;;1.00;0.68;;;;;;;21.06;33.35;99522.94;5131601;28;20043;-60
2022/04/10 00:13:39;;;;;;;1.48;0.80;;;;;;;21.07;33.55;99526.50;5131833;28;20039;-60
2022/04/10 00:16:04;;;;;;;1.48;0.95;;;;;;;21.05;33.45;99523.31;5131342;28;20051;-60
2022/04/10 00:18:31;;;;;;;1.48;0.80;;;;;;;21.04;33.31;99522.50;5131229;28;20468;-60
2022/04/10 00:20:56;;;;;;;1.75;1.00;;;;;;;21.05;33.43;99526.09;5131330;28;20043;-60
2022/04/10 00:23:22;;;;;;;1.02;0.70;;;;;;;21.04;33.26;99522.50;5131411;28;20049;-60
2022/04/10 00:25:47;;;;;;;1.30;0.80;;;;;;;21.04;33.37;99516.16;5131135;28;20039;-61
2022/04/10 00:28:12;;;;;;;1.52;0.80;;;;;;;21.04;33.12;99518.94;5131169;28;20425;-60
2022/04/10 00:30:38;;;;;;;0.95;0.75;;;;;;;21.02;33.46;99510.16;5131394;28;20043;-60
2022/04/10 00:33:03;;;;;;;1.27;0.77;;;;;;;20.99;33.32;99505.34;5131048;28;20042;-60
2022/04/10 00:35:29;;;;;;;1.13;0.68;;;;;;;21.04;33.48;99513.38;5131348;28;20109;-60
2022/04/10 00:37:54;;;;;;;1.15;0.70;;;;;;;21.03;33.32;99512.56;5130960;28;20472;-61
2022/04/10 00:40:19;;;;;;;1.08;0.70;;;;;;;21.01;33.28;99509.38;5131075;28;20054;-60
2022/04/10 00:42:49;;;;;;;1.17;0.80;;;;;;;21.01;33.14;99512.16;5131047;28;20473;-60
2022/04/10 00:45:16;;;;;;;1.13;0.70;;;;;;;21.03;33.09;99508.97;5131191;28;20059;-60
2022/04/10 00:47:44;;;;;;;1.13;0.77;;;;;;;21.01;33.07;99506.59;5131090;28;20039;-60
2022/04/10 00:50:11;;;;;;;1.13;0.80;;;;;;;21.02;33.28;99499.84;5131069;28;20059;-60
2022/04/10 00:52:38;;;;;;;1.05;0.75;;;;;;;21.01;32.90;99498.25;5131004;28;20039;-66
2022/04/10 00:55:04;;;;;;;1.98;0.60;;;;;;;21.00;33.02;99499.38;5130867;28;20047;-66
2022/04/10 00:57:30;;;;;;;1.05;0.70;;;;;;;21.00;33.13;99495.81;5130812;28;20419;-66
2022/04/10 00:59:55;;;;;;;1.70;0.80;;;;;;;21.00;33.16;99499.38;5130584;28;20536;-60
2022/04/10 01:02:21;;;;;;;0.65;0.50;;;;;;;21.02;33.02;99493.47;5130652;27;20372;-60
2022/04/10 01:04:47;;;;;;;1.17;0.77;;;;;;;21.03;33.04;99500.63;5130544;28;20047;-60
2022/04/10 01:07:15;;;;;;;0.93;0.68;;;;;;;21.00;33.10;99496.59;5130802;28;20239;-60
2022/04/10 01:09:40;;;;;;;1.20;0.70;;;;;;;20.96;33.02;99483.84;5130783;28;20042;-60
2022/04/10 01:12:07;;;;;;;1.17;0.73;;;;;;;20.97;32.91;99497.38;5130805;28;20213;-60
2022/04/10 01:14:33;;;;;;;1.20;0.60;;;;;;;20.99;32.73;99494.22;5130777;28;20064;-60
2022/04/10 01:17:01;;;;;;;1.20;0.80;;;;;;;20.98;33.01;99498.97;5130539;28;20035;-61
2022/04/10 01:19:26;;;;;;;1.10;0.60;;;;;;;20.99;32.90;99502.56;5130483;28;20039;-60
2022/04/10 01:21:58;;;;;;;0.98;0.63;;;;;;;20.97;32.99;99502.94;5130479;28;20051;-60
2022/04/10 01:24:24;;;;;;;1.05;0.65;;;;;;;20.99;32.80;99505.34;5130587;28;20096;-60
2022/04/10 01:26:49;;;;;;;1.08;0.60;;;;;;;20.97;32.95;99505.72;5130524;28;20047;-60
2022/04/10 01:29:15;;;;;;;1.10;0.60;;;;;;;20.97;32.98;99508.50;5130463;28;20043;-66
2022/04/10 01:31:42;;;;;;;1.17;0.70;;;;;;;20.96;32.80;99501.31;5130479;28;20513;-66
2022/04/10 01:34:10;;;;;;;0.95;0.60;;;;;;;20.98;32.90;99500.94;5130540;28;20567;-65
2022/04/10 01:36:37;;;;;;;1.42;0.80;;;;;;;20.98;32.84;99509.28;5130409;28;20048;-66
2022/04/10 01:39:05;;;;;;;0.80;0.65;;;;;;;20.97;32.92;99502.13;5128011;27;20134;-66
2022/04/10 01:41:31;;;;;;;1.10;0.70;;;;;;;20.96;32.64;99506.09;5130170;28;20050;-66
2022/04/10 01:43:57;;;;;;;1.05;0.70;;;;;;;20.96;32.72;99503.31;5130341;28;20047;-66
2022/04/10 01:46:26;;;;;;;1.45;0.80;;;;;;;20.95;32.68;99507.28;5130245;28;20043;-60
2022/04/10 01:48:52;;;;;;;1.50;0.90;;;;;;;20.96;32.78;99500.53;5130174;28;20054;-60
2022/04/10 01:51:18;;;;;;;0.90;0.68;;;;;;;20.95;32.70;99504.50;5130078;28;20043;-60
2022/04/10 01:53:44;;;;;;;1.15;0.77;;;;;;;20.95;32.53;99496.16;5130019;28;20126;-60
2022/04/10 01:56:10;;;;;;;1.42;0.93;;;;;;;20.95;32.59;99496.16;5129764;28;20051;-60
2022/04/10 01:58:38;;;;;;;1.65;0.90;;;;;;;20.96;32.62;99489.41;5129950;28;20509;-61
2022/04/10 02:01:07;;;;;;;1.30;0.68;;;;;;;20.94;32.81;99492.56;5130002;28;20050;-60
2022/04/10 02:03:34;;;;;;;0.95;0.60;;;;;;;20.96;32.80;99492.19;5129927;28;20111;-60
2022/04/10 02:06:00;;;;;;;0.93;0.68;;;;;;;20.95;32.59;99501.72;5129830;28;20096;-60
2022/04/10 02:08:27;;;;;;;1.05;0.80;;;;;;;20.93;32.51;99495.69;5130013;28;20047;-60
2022/04/10 02:10:53;;;;;;;1.13;0.80;;;;;;;20.92;32.64;99497.69;5129788;28;20130;-61
2022/04/10 02:13:19;;;;;;;1.13;0.70;;;;;;;20.91;32.80;99498.06;5129988;28;20130;-60
2022/04/10 02:15:45;;;;;;;1.15;0.73;;;;;;;20.95;32.55;99504.50;5131608;27;20047;-60
2022/04/10 02:18:10;;;;;;;1.27;0.70;;;;;;;20.93;32.66;99495.69;5133323;28;20043;-60
2022/04/10 02:20:36;;;;;;;0.98;0.70;;;;;;;20.94;32.64;99500.91;5133423;28;20043;-60
2022/04/10 02:23:01;;;;;;;1.13;0.68;;;;;;;20.95;32.49;99496.16;5133539;28;20426;-60
2022/04/10 02:25:27;;;;;;;0.77;0.63;;;;;;;20.94;32.41;99494.53;5133195;28;20096;-60
2022/04/10 02:27:52;;;;;;;1.20;0.80;;;;;;;20.93;32.59;99498.47;5133144;28;20049;-60
2022/04/10 02:30:18;;;;;;;1.00;0.70;;;;;;;20.93;32.77;99504.03;5133123;28;20032;-60
2022/04/10 02:32:44;;;;;;;1.17;0.80;;;;;;;20.92;32.61;99499.66;5132978;28;20130;-60
2022/04/10 02:35:10;;;;;;;0.95;0.60;;;;;;;20.92;32.33;99503.25;5133269;28;20046;-60
2022/04/10 02:37:36;;;;;;;1.15;0.70;;;;;;;20.92;32.59;99503.25;5133183;28;20035;-60
2022/04/10 02:40:03;;;;;;;1.35;0.73;;;;;;;20.91;32.43;99506.41;5132829;28;20051;-60
2022/04/10 02:42:31;;;;;;;1.27;0.77;;;;;;;20.91;32.35;99504.41;5132838;28;20130;-60
2022/04/10 02:44:56;;;;;;;1.33;0.80;;;;;;;20.92;32.47;99506.03;5099825;28;20466;-61
2022/04/10 02:47:21;;;;;;;1.10;0.75;;;;;;;20.92;32.32;99499.66;5132866;28;20507;-60
2022/04/10 02:49:47;;;;;;;1.20;0.80;;;;;;;20.90;32.59;99497.25;5132820;28;20058;-60
2022/04/10 02:52:13;;;;;;;0.90;0.60;;;;;;;20.89;32.21;99496.47;5132929;28;20039;-60
2022/04/10 02:54:38;;;;;;;1.52;1.00;;;;;;;20.90;32.48;99497.25;5132714;28;20038;-60
2022/04/10 02:57:04;;;;;;;1.20;0.75;;;;;;;20.87;32.40;99498.03;5132825;28;20047;-60
2022/04/10 02:59:29;;;;;;;1.23;0.77;;;;;;;20.90;32.48;99500.03;5132829;28;20082;-60
2022/04/10 03:01:54;;;;;;;1.40;0.88;;;;;;;20.89;32.42;99502.00;5132930;28;20039;-60
2022/04/10 03:04:20;;;;;;;1.13;0.70;;;;;;;20.88;32.23;99500.41;5132624;28;20464;-60
2022/04/10 03:06:45;;;;;;;1.15;0.75;;;;;;;20.89;32.35;99498.44;5132550;28;20092;-60
2022/04/10 03:09:11;;;;;;;1.20;0.70;;;;;;;20.88;32.36;99500.41;5132753;28;20058;-60
2022/04/10 03:11:36;;;;;;;1.23;0.73;;;;;;;20.88;32.33;99499.63;5132405;28;20051;-61
2022/04/10 03:14:02;;;;;;;1.23;0.80;;;;;;;20.89;32.45;99501.22;5132408;28;20415;-61
2022/04/10 03:16:28;;;;;;;1.35;0.90;;;;;;;20.88;32.53;99497.63;5132242;28;20122;-60
2022/04/10 03:18:53;;;;;;;1.40;0.90;;;;;;;20.88;32.43;99494.06;5132355;28;20051;-61
2022/04/10 03:21:18;;;;;;;1.33;0.85;;;;;;;20.85;32.45;99492.81;5132391;28;20058;-60
2022/04/10 03:23:44;;;;;;;1.52;0.82;;;;;;;20.88;32.29;99502.41;5132494;28;20035;-61
2022/04/10 03:26:10;;;;;;;1.42;0.88;;;;;;;20.87;32.36;99498.81;5131779;27;20131;-60
2022/04/10 03:28:35;;;;;;;1.08;0.70;;;;;;;20.86;32.11;99490.84;5132434;28;20072;-60
2022/04/10 03:31:01;;;;;;;1.50;0.70;;;;;;;20.84;32.17;99491.19;5132146;28;20388;-60
2022/04/10 03:33:26;;;;;;;1.10;0.80;;;;;;;20.85;32.20;99490.03;5132353;28;20062;-60
2022/04/10 03:35:54;;;;;;;0.98;0.68;;;;;;;20.84;32.14;99495.97;5132107;28;20045;-60
2022/04/10 03:38:20;;;;;;;1.20;0.80;;;;;;;20.86;32.07;99488.06;5131900;28;20058;-60
2022/04/10 03:40:46;;;;;;;1.50;0.90;;;;;;;20.86;32.36;99482.50;5131957;28;20035;-60
2022/04/10 03:43:12;;;;;;;1.25;0.90;;;;;;;20.87;32.20;99475.78;5132066;28;20055;-60
2022/04/10 03:45:38;;;;;;;1.13;0.77;;;;;;;20.86;32.20;99477.75;5131950;28;20035;-60
2022/04/10 03:48:08;;;;;;;1.25;0.80;;;;;;;20.87;31.99;99475.78;5132013;28;20040;-60
2022/04/10 03:50:34;;;;;;;1.67;0.90;;;;;;;20.87;32.29;99475.78;5131838;28;20495;-60
2022/04/10 03:53:04;;;;;;;1.23;0.80;;;;;;;20.84;32.07;99477.31;5132073;28;20035;-60
2022/04/10 03:55:30;;;;;;;1.17;0.80;;;;;;;20.84;32.26;99471.75;5131832;28;20036;-60
2022/04/10 03:57:56;;;;;;;1.20;0.80;;;;;;;20.85;31.99;99483.66;5131750;28;20491;-60
2022/04/10 04:00:22;;;;;;;1.27;0.80;;;;;;;20.83;32.19;99481.25;5131794;28;20053;-60
2022/04/10 04:02:47;;;;;;;1.05;0.70;;;;;;;20.83;32.02;99481.25;5131629;28;20058;-60
2022/04/10 04:05:13;;;;;;;1.23;0.80;;;;;;;20.83;31.95;99481.25;5131441;28;20053;-60
2022/04/10 04:07:39;;;;;;;1.10;0.80;;;;;;;20.83;32.20;99481.25;5131515;28;20062;-60
2022/04/10 04:10:06;;;;;;;1.20;0.73;;;;;;;20.83;31.90;99486.81;5131582;28;20039;-61
2022/04/10 04:12:33;;;;;;;1.30;0.80;;;;;;;20.84;32.10;99490.41;5131560;28;20136;-60
2022/04/10 04:14:59;;;;;;;1.55;0.90;;;;;;;20.84;31.95;99491.19;5131399;28;20031;-60
2022/04/10 04:17:25;;;;;;;1.25;0.80;;;;;;;20.85;31.98;99492.00;5131518;28;20077;-60
2022/04/10 04:19:51;;;;;;;1.42;0.90;;;;;;;20.82;31.94;99493.56;5131351;28;20505;-60
2022/04/10 04:22:19;;;;;;;1.23;0.82;;;;;;;20.83;31.95;99497.16;5131405;28;20088;-60
2022/04/10 04:24:45;;;;;;;1.42;0.90;;;;;;;20.83;32.13;99500.72;5131271;28;20039;-61
2022/04/10 04:27:10;;;;;;;1.48;0.90;;;;;;;20.84;32.01;99505.09;5131304;28;20063;-61
2022/04/10 04:29:35;;;;;;;1.73;1.02;;;;;;;20.82;32.10;99515.81;5131087;28;20043;-60
2022/04/10 04:32:01;;;;;;;1.00;0.80;;;;;;;20.82;32.10;99515.81;5131085;28;20415;-60
2022/04/10 04:34:26;;;;;;;2.10;1.10;;;;;;;20.83;32.14;99522.16;5131165;28;20050;-60
2022/04/10 04:36:52;;;;;;;1.60;0.90;;;;;;;20.85;31.90;99523.38;5131184;27;20141;-65
2022/04/10 04:39:17;;;;;;;1.10;0.73;;;;;;;20.84;31.98;99527.34;5130164;28;20043;-66
2022/04/10 04:41:43;;;;;;;1.77;0.98;;;;;;;20.83;32.08;99534.09;5131257;28;20043;-66
2022/04/10 04:44:09;;;;;;;1.45;0.82;;;;;;;20.83;31.93;99534.09;5130711;28;20051;-66
2022/04/10 04:46:34;;;;;;;1.17;0.80;;;;;;;20.82;32.14;99534.47;5130939;28;20445;-66
2022/04/10 04:49:00;;;;;;;1.17;0.88;;;;;;;20.81;31.89;99536.44;5130777;28;20415;-66
2022/04/10 04:51:25;;;;;;;1.60;0.90;;;;;;;20.82;32.09;99546.38;5131006;28;20081;-66
2022/04/10 04:53:51;;;;;;;1.30;0.90;;;;;;;20.83;31.83;99553.53;5130848;28;20483;-66
2022/04/10 04:56:16;;;;;;;1.33;0.80;;;;;;;20.83;32.10;99558.31;5130992;28;20431;-66
2022/04/10 04:58:43;;;;;;;1.60;0.98;;;;;;;20.84;32.11;99565.47;5130840;28;20419;-66
2022/04/10 05:01:08;;;;;;;1.48;1.00;;;;;;;20.82;32.09;99563.06;5130719;28;20396;-66
2022/04/10 05:03:34;;;;;;;1.63;1.10;;;;;;;20.84;32.11;99571.81;5130886;28;20061;-66
2022/04/10 05:05:59;;;;;;;1.52;0.90;;;;;;;20.84;31.79;99571.03;5130825;28;20471;-66
2022/04/10 05:08:25;;;;;;;1.23;0.82;;;;;;;20.84;31.88;99576.59;5130736;28;20410;-66
2022/04/10 05:10:50;;;;;;;1.17;0.88;;;;;;;20.83;31.83;99586.09;5130624;28;20088;-66
2022/04/10 05:13:16;;;;;;;1.52;0.93;;;;;;;20.84;31.92;99594.06;5130711;28;20046;-66
2022/04/10 05:15:41;;;;;;;1.70;1.10;;;;;;;20.84;31.87;99599.63;5130104;28;20058;-66
2022/04/10 05:18:07;;;;;;;1.60;1.00;;;;;;;20.82;32.12;99602.00;5130554;28;20100;-60
2022/04/10 05:20:32;;;;;;;1.40;0.90;;;;;;;20.82;31.85;99607.53;5130507;28;20061;-60
2022/04/10 05:22:57;;;;;;;1.30;0.90;;;;;;;20.81;31.79;99600.38;5130526;28;20047;-61
2022/04/10 05:25:23;;;;;;;1.55;0.90;;;;;;;20.82;31.85;99606.75;5130707;28;20031;-60
2022/04/10 05:27:48;;;;;;;1.92;1.20;;;;;;;20.81;31.77;99605.94;5130677;28;20491;-60
2022/04/10 05:30:14;;;;;;;1.70;1.08;;;;;;;20.81;31.87;99603.16;5130499;28;20404;-66
2022/04/10 05:32:42;;;;;;;1.20;0.90;;;;;;;20.80;32.15;99607.13;5130445;28;20137;-66
2022/04/10 05:35:11;;;;;;;1.55;0.93;;;;;;;20.82;31.87;99615.09;5130314;28;20049;-65
2022/04/10 05:37:37;;;;;;;1.10;0.80;;;;;;;20.84;32.11;99619.09;5130453;28;20103;-66
2022/04/10 05:40:03;;;;;;;1.20;0.80;;;;;;;20.83;31.94;99620.28;5130310;28;20395;-66
2022/04/10 05:42:29;;;;;;;1.80;1.13;;;;;;;20.85;32.03;99625.44;5130274;28;20376;-66
2022/04/10 05:45:02;;;;;;;1.83;1.17;;;;;;;20.82;32.18;99627.00;5130183;28;20042;-66
2022/04/10 05:47:27;;;;;;;1.40;0.90;;;;;;;20.83;32.20;99630.59;5130335;28;20428;-66
2022/04/10 05:49:53;;;;;;;1.35;0.90;;;;;;;20.85;32.11;99628.22;5132321;27;20092;-66
2022/04/10 05:52:18;;;;;;;1.48;0.93;;;;;;;20.85;32.17;99628.22;5133824;28;20043;-60
2022/04/10 05:54:44;;;;;;;1.45;0.90;;;;;;;20.85;32.25;99631.00;5133931;28;20146;-60
2022/04/10 05:57:09;;;;;;;1.67;0.93;;;;;;;20.86;32.18;99630.66;5133534;28;20084;-60
2022/04/10 05:59:34;;;;;;;1.35;0.98;;;;;;;20.84;32.28;99633.00;5133423;28;20039;-60
2022/04/10 06:02:00;;;;;;;1.98;0.98;;;;;;;20.85;32.19;99640.16;5133596;28;20489;-60
2022/04/10 06:04:26;;;;;;;1.95;1.05;;;;;;;20.84;32.34;99649.66;5133623;28;20088;-60
2022/04/10 06:06:51;;;;;;;1.83;1.13;;;;;;;20.85;32.30;99645.72;5133431;28;20039;-60
2022/04/10 06:09:17;;;;;;;1.73;1.10;;;;;;;20.86;32.16;99654.88;5133380;28;20104;-60
2022/04/10 06:11:42;;;;;;;1.80;1.15;;;;;;;20.87;32.19;99650.94;5133578;28;20156;-60
2022/04/10 06:14:08;;;;;;;1.48;1.00;;;;;;;20.88;32.24;99658.09;5133364;28;20104;-60
2022/04/10 06:16:33;;;;;;;1.52;0.93;;;;;;;20.86;32.41;99652.91;5133203;28;20083;-60
2022/04/10 06:18:58;;;;;;;1.58;1.00;;;;;;;20.88;32.18;99658.91;5133340;28;20069;-60
2022/04/10 06:21:24;;;;;;;1.42;0.90;;;;;;;20.89;32.43;99668.84;5133209;28;20120;-60
2022/04/10 06:23:49;;;;;;;1.58;1.00;;;;;;;20.90;32.25;99666.88;5133354;28;20035;-60
2022/04/10 06:26:15;;;;;;;1.92;1.02;;;;;;;20.88;32.46;99667.25;5133525;28;20120;-61
2022/04/10 06:28:40;;;;;;;1.73;1.15;;;;;;;20.87;32.50;99667.63;5133432;28;20051;-60
2022/04/10 06:31:05;;;;;;;1.50;0.90;;;;;;;20.91;32.25;99670.44;5133214;28;20126;-60
2022/04/10 06:33:31;;;;;;;1.88;1.00;;;;;;;20.91;32.26;99673.22;5133248;28;20050;-60
2022/04/10 06:35:56;;;;;;;1.85;1.10;;;;;;;20.91;32.34;99670.44;5132977;28;20075;-60
2022/04/10 06:38:21;;;;;;;1.83;1.20;;;;;;;20.88;32.26;99670.00;5133062;28;20044;-60
2022/04/10 06:40:51;;;;;;;1.60;1.02;;;;;;;20.89;32.53;99668.84;5133139;28;20556;-60
2022/04/10 06:43:16;;;;;;;1.48;1.05;;;;;;;20.87;32.35;99664.84;5133078;28;20126;-60
2022/04/10 06:45:42;;;;;;;1.50;1.00;;;;;;;20.89;32.49;99671.63;5132988;28;20138;-61
2022/04/10 06:48:07;;;;;;;1.05;0.82;;;;;;;20.91;32.42;99673.22;5132934;28;20051;-61
2022/04/10 06:50:33;;;;;;;1.60;1.10;;;;;;;20.92;32.23;99666.47;5133177;28;20447;-60
2022/04/10 06:52:58;;;;;;;1.50;1.00;;;;;;;20.92;32.30;99672.03;5132915;28;20130;-60
2022/04/10 06:55:23;;;;;;;1.42;1.00;;;;;;;20.92;32.31;99666.47;5132742;28;20043;-60
2022/04/10 06:57:49;;;;;;;1.55;1.00;;;;;;;20.92;32.51;99664.50;5132905;28;20039;-60
2022/04/10 07:00:15;;;;;;;1.13;0.80;;;;;;;20.93;32.59;99668.88;5132231;27;20519;-60
2022/04/10 07:02:40;;;;;;;2.08;1.10;;;;;;;20.93;32.35;99656.97;5132346;28;20035;-61
2022/04/10 07:05:06;;;;;;;1.65;1.10;;;;;;;20.93;32.37;99663.31;5132648;28;20494;-60
2022/04/10 07:07:31;;;;;;;1.42;0.98;;;;;;;20.93;32.37;99662.53;5132697;28;20047;-60
2022/04/10 07:09:59;;;;;;;1.80;1.20;;;;;;;20.94;32.34;99662.19;5132594;28;20087;-60
2022/04/10 07:12:25;;;;;;;1.92;1.10;;;;;;;20.96;32.59;99667.38;5132532;28;20422;-61
2022/04/10 07:14:50;;;;;;;1.60;1.00;;;;;;;20.96;32.36;99661.81;5132582;28;20039;-60
2022/04/10 07:17:16;;;;;;;1.88;1.20;;;;;;;20.96;32.57;99664.59;5132330;28;20050;-60
2022/04/10 07:19:41;;;;;;;1.77;1.00;;;;;;;20.96;32.33;99667.38;5132360;28;20058;-60
2022/04/10 07:24:50;;;;;;;1.50;1.00;;;;;;;20.98;32.37;99651.09;5132422;28;20046;-61
2022/04/10 07:27:16;;;;;;;1.50;1.00;;;;;;;20.97;32.57;99653.09;5132102;28;20043;-60
2022/04/10 07:29:41;;;;;;;1.40;1.00;;;;;;;20.97;32.69;99653.09;5132413;28;20496;-60
2022/04/10 07:32:07;;;;;;;1.55;0.98;;;;;;;20.97;32.33;99655.06;5132154;28;20069;-66
2022/04/10 07:34:32;;;;;;;1.73;1.15;;;;;;;20.99;32.40;99656.28;5132142;28;20035;-66
2022/04/10 07:36:59;;;;;;;1.55;1.00;;;;;;;20.99;32.49;99658.28;5132166;28;20045;-66
2022/04/10 07:39:24;;;;;;;1.60;1.02;;;;;;;21.01;32.37;99661.50;5132026;28;20510;-60
2022/04/10 07:41:49;;;;;;;1.77;1.02;;;;;;;21.01;32.36;99658.72;5132158;28;20046;-60
2022/04/10 07:44:15;;;;;;;1.70;1.08;;;;;;;20.99;32.72;99664.63;5131851;28;20147;-66
2022/04/10 07:47:40;;;;;;;1.40;0.85;;;;;;;21.01;32.61;99653.97;5132190;28;20572;-66
2022/04/10 07:49:34;;;;;;;1.58;1.00;;;;;;;21.03;32.70;99664.72;5116969;28;20495;-66
2022/04/10 07:52:00;;;;;;;1.80;1.10;;;;;;;21.03;32.66;99657.19;5131860;28;20189;-66
2022/04/10 07:54:25;;;;;;;1.10;0.80;;;;;;;21.04;32.37;99657.97;5131838;28;20130;-66
2022/04/10 07:56:51;;;;;;;2.08;0.90;;;;;;;21.05;32.45;99654.00;5131792;28;20055;-66
2022/04/10 07:59:17;;;;;;;1.27;0.85;;;;;;;21.04;32.44;99647.66;5131990;28;20134;-66
2022/04/10 08:01:42;;;;;;;1.30;0.90;;;;;;;21.03;32.32;99639.69;5131747;28;20410;-66
2022/04/10 08:04:08;;;;;;;1.73;1.05;;;;;;;21.04;32.29;99644.06;5131558;28;20487;-66
2022/04/10 08:06:33;;;;;;;1.13;0.80;;;;;;;21.04;32.45;99641.28;5131565;28;20042;-66
2022/04/10 08:09:00;;;;;;;1.17;0.80;;;;;;;21.05;32.00;99640.09;5131687;28;20039;-66
2022/04/10 08:11:25;;;;;;;1.45;0.70;;;;;;;21.07;32.35;99640.53;5131658;28;20039;-65
2022/04/10 08:13:51;;;;;;;1.73;0.93;;;;;;;21.07;32.16;99641.34;5131485;27;20057;-66
2022/04/10 08:16:16;;;;;;;1.20;0.80;;;;;;;21.08;32.15;99637.41;5131286;28;20376;-66
2022/04/10 08:18:42;;;;;;;0.90;0.60;;;;;;;21.07;32.17;99630.22;5131399;28;20058;-66
2022/04/10 08:21:07;;;;;;;1.02;0.60;;;;;;;21.11;31.86;99635.84;5131608;28;20074;-66
2022/04/10 08:23:34;;;;;;;1.35;0.80;;;;;;;21.11;32.33;99633.88;5131395;28;20035;-66
2022/04/10 08:25:59;;;;;;;1.23;0.77;;;;;;;21.12;31.79;99645.78;5131583;28;20039;-66
2022/04/10 08:28:25;;;;;;;1.25;0.80;;;;;;;21.13;31.89;99639.06;5131342;28;20096;-66
2022/04/10 08:30:51;;;;;;;1.23;0.80;;;;;;;21.11;32.06;99636.66;5131464;28;20082;-66
2022/04/10 08:33:16;;;;;;;0.50;0.50;;;;;;;21.13;31.78;99630.72;5131224;28;20415;-66
2022/04/10 08:35:42;;;;;;;0.90;0.60;;;;;;;21.12;31.92;99629.09;5131104;28;20043;-66
2022/04/10 08:38:07;;;;;;;1.35;0.82;;;;;;;21.12;31.75;99624.34;5130855;28;20043;-66
2022/04/10 08:40:33;;;;;;;0.75;0.60;;;;;;;21.15;31.92;99631.16;5130723;28;20046;-66
2022/04/10 08:43:02;;;;;;;1.48;0.63;;;;;;;21.13;31.87;99625.94;5131141;28;20058;-66
2022/04/10 08:45:28;;;;;;;0.88;0.70;;;;;;;21.13;31.77;99630.72;5131086;28;20071;-66
2022/04/10 08:47:55;;;;;;;1.20;0.70;;;;;;;21.13;31.85;99630.72;5131304;28;20503;-66
2022/04/10 08:50:23;;;;;;;0.80;0.60;;;;;;;21.14;31.94;99629.53;5131003;28;20059;-66
2022/04/10 08:52:52;;;;;;;0.98;0.70;;;;;;;21.13;31.68;99630.72;5131087;28;20035;-66
2022/04/10 08:55:18;;;;;;;1.00;0.55;;;;;;;21.14;31.48;99629.53;5077165;28;20521;-66
2022/04/10 08:57:44;;;;;;;1.50;0.73;;;;;;;21.13;31.55;99628.72;5130835;28;20035;-66
2022/04/10 09:00:10;;;;;;;1.15;0.70;;;;;;;21.13;31.44;99620.38;5130696;28;20049;-66
2022/04/10 09:02:52;;;;;;;1.10;0.60;;;;;;;21.14;31.58;99629.53;5130727;28;20035;-66
2022/04/10 09:05:21;;;;;;;0.88;0.60;;;;;;;21.14;31.60;99629.53;5130672;28;20051;-66
2022/04/10 09:08:06;;;;;;;0.88;0.60;;;;;;;21.12;31.30;99623.53;5130580;28;20043;-66
2022/04/10 09:10:52;;;;;;;0.90;0.50;;;;;;;21.11;31.41;99624.72;5130630;28;20062;-66
2022/04/10 09:13:27;;;;;;;1.08;0.63;;;;;;;21.13;31.28;99630.72;5130783;28;20122;-65
2022/04/10 09:16:13;;;;;;;1.02;0.60;;;;;;;21.13;31.18;99622.38;5130684;28;20046;-66
2022/04/10 09:18:55;;;;;;;0.90;0.68;;;;;;;21.13;31.26;99612.03;5128854;28;20134;-66
2022/04/10 09:21:32;;;;;;;0.90;0.60;;;;;;;21.12;31.41;99617.97;5130450;28;20039;-66
2022/04/10 09:24:12;;;;;;;1.15;0.60;;;;;;;21.12;31.49;99617.97;5132253;27;20541;-65
2022/04/10 09:26:48;;;;;;;1.65;0.80;;;;;;;21.10;31.18;99612.78;5137553;27;20067;-66
2022/04/10 09:29:16;;;;;;;0.63;0.47;;;;;;;21.12;31.30;99620.75;5137403;27;20043;-66
2022/04/10 09:31:42;;;;;;;0.55;0.43;;;;;;;21.11;31.39;99608.03;5137384;27;20039;-66
2022/04/10 09:34:09;;;;;;;0.70;0.50;;;;;;;21.07;31.15;99613.53;5137425;27;20050;-65
2022/04/10 09:36:45;;;;;;;0.73;0.50;;;;;;;21.12;31.02;99615.19;5137144;27;20047;-66
2022/04/10 09:39:15;;;;;;;0.80;0.50;;;;;;;21.11;31.09;99608.03;5134988;27;20047;-66
2022/04/10 09:41:43;;;;;;;0.80;0.52;;;;;;;21.09;31.31;99610.41;5137359;27;20130;-66
2022/04/10 09:44:21;;;;;;;0.60;0.50;;;;;;;21.08;31.28;99601.25;5136968;27;20054;-66
2022/04/10 09:46:58;;;;;;;1.33;0.47;;;;;;;21.10;30.94;99612.00;5137315;27;20051;-66
2022/04/10 09:49:24;;;;;;;0.68;0.50;;;;;;;21.09;31.13;99604.84;5137230;27;20054;-65
2022/04/10 09:52:11;;;;;;;0.50;0.40;;;;;;;21.07;30.92;99591.28;5137151;27;20043;-65
2022/04/10 09:54:36;;;;;;;0.82;0.55;;;;;;;21.07;30.91;99591.28;5137143;27;20035;-66
2022/04/10 09:57:03;;;;;;;0.95;0.60;;;;;;;21.08;31.02;99586.53;5137204;27;20050;-66
2022/04/10 09:59:36;;;;;;;0.70;0.40;;;;;;;21.07;31.05;99582.13;5136986;27;20034;-65
2022/04/10 10:02:05;;;;;;;0.63;0.50;;;;;;;21.08;30.99;99583.75;5137202;27;20039;-66
2022/04/10 10:04:33;;;;;;;0.68;0.50;;;;;;;21.06;30.89;99578.53;5136941;27;20043;-66
2022/04/10 10:07:00;;;;;;;0.90;0.50;;;;;;;21.05;30.79;99570.59;5136899;27;20043;-66
2022/04/10 10:09:27;;;;;;;0.55;0.40;;;;;;;21.06;30.81;99572.19;5136944;27;20039;-66
2022/04/10 10:11:53;;;;;;;0.55;0.40;;;;;;;21.04;30.86;99567.00;5136905;27;20111;-66
2022/04/10 10:14:18;;;;;;;0.93;0.60;;;;;;;21.03;30.70;99557.06;5136945;27;20457;-65
2022/04/10 10:16:45;;;;;;;0.65;0.40;;;;;;;21.03;30.73;99564.59;5136752;27;20523;-66
2022/04/10 10:19:10;;;;;;;0.95;0.60;;;;;;;21.01;30.58;99548.28;5136617;27;20051;-66
2022/04/10 10:21:36;;;;;;;0.98;0.50;;;;;;;21.01;30.66;99548.28;5136557;27;20451;-66
2022/04/10 10:24:04;;;;;;;0.68;0.50;;;;;;;21.01;30.69;99547.50;5136618;27;20039;-66
2022/04/10 10:26:39;;;;;;;0.40;0.40;;;;;;;20.98;30.68;99539.88;5136502;27;20043;-65
2022/04/10 10:29:34;;;;;;;1.10;0.70;;;;;;;20.98;30.98;99520.41;5136786;27;20521;-66
2022/04/10 10:32:00;;;;;;;0.93;0.55;;;;;;;20.99;30.72;99527.56;5133678;27;20080;-66
2022/04/10 10:34:28;;;;;;;0.45;0.40;;;;;;;20.97;30.85;99525.19;5136618;27;20039;-66
2022/04/10 10:36:54;;;;;;;0.82;0.50;;;;;;;20.98;30.76;99517.63;5128591;28;20050;-66
2022/04/10 10:39:20;;;;;;;0.68;0.45;;;;;;;20.98;31.07;99521.22;5133067;28;20147;-65
2022/04/10 10:41:50;;;;;;;0.65;0.50;;;;;;;20.96;30.71;99506.09;5133080;28;20330;-66
2022/04/10 10:44:37;;;;;;;0.60;0.50;;;;;;;20.95;30.69;99507.28;5133037;28;20434;-66
2022/04/10 10:47:03;;;;;;;0.80;0.52;;;;;;;20.94;31.21;99503.69;5132938;28;20449;-66
2022/04/10 10:49:30;;;;;;;0.98;0.65;;;;;;;20.94;30.83;99503.69;5133016;28;20460;-66
2022/04/10 10:51:57;;;;;;;0.65;0.50;;;;;;;20.94;31.01;99503.69;5133059;28;20047;-66
2022/04/10 10:54:34;;;;;;;0.63;0.50;;;;;;;20.92;30.87;99494.91;5132853;28;20057;-66
2022/04/10 10:57:17;;;;;;;1.05;0.65;;;;;;;20.92;30.93;99494.09;5132818;28;20043;-66
2022/04/10 10:59:43;;;;;;;0.60;0.50;;;;;;;20.89;31.01;99479.78;5132774;28;20047;-66
2022/04/10 11:02:19;;;;;;;0.43;0.40;;;;;;;20.88;30.55;99486.50;5132916;28;20103;-66
2022/04/10 11:04:47;;;;;;;0.57;0.40;;;;;;;20.88;30.79;99472.63;5132730;28;20047;-66
2022/04/10 11:07:18;;;;;;;0.50;0.40;;;;;;;20.86;30.47;99472.19;5132628;28;20035;-66
2022/04/10 11:09:56;;;;;;;0.82;0.50;;;;;;;20.85;30.37;99470.56;5132618;28;20048;-65
2022/04/10 11:12:23;;;;;;;0.45;0.40;;;;;;;20.84;30.57;99468.16;5098832;28;20078;-66
2022/04/10 11:14:56;;;;;;;0.63;0.40;;;;;;;20.83;30.11;99467.38;5132485;28;20119;-65
2022/04/10 11:17:27;;;;;;;0.47;0.30;;;;;;;20.81;30.17;99455.81;5132630;28;20546;-65
2022/04/10 11:19:54;;;;;;;1.23;0.40;;;;;;;20.83;30.23;99459.03;5132385;28;20441;-66
2022/04/10 11:22:25;;;;;;;0.50;0.30;;;;;;;20.81;29.98;99453.03;5132315;28;20452;-66
2022/04/10 11:24:57;;;;;;;0.65;0.47;;;;;;;20.80;30.16;99447.88;5132410;28;20062;-66
2022/04/10 11:28:04;;;;;;;0.70;0.40;;;;;;;20.81;30.07;99447.47;5132536;28;20968;-66
2022/04/10 11:30:38;;;;;;;0.80;0.40;;;;;;;20.79;30.00;99441.50;5048910;28;20045;-65
2022/04/10 11:33:09;;;;;;;0.80;0.40;;;;;;;20.78;29.88;99439.88;5042566;28;20045;-66
2022/04/10 11:35:40;;;;;;;0.65;0.40;;;;;;;20.79;29.80;99441.50;5028974;28;20041;-66
2022/04/10 11:38:13;;;;;;;0.40;0.32;;;;;;;20.77;29.91;99437.47;5028790;28;20049;-66